Time;durP1;ratioP1;P1;durP2;ratioP2;P2;SDS_P1;SDS_P2;PMS_P1;PMS_P2;Temp;Humidity;BMP_temperature;BMP_pressure;BME280_temperature;BME280_humidity;BME280_pressure;Samples;Min_cycle;Max_cycle;Signal;HPM_P1;HPM_P2
2022/08/15 00:00:06;;;;;;;8.45;7.75;;;;;;;23.52;52.64;99762.38;5046800;28;20209;-80
2022/08/15 00:02:33;;;;;;;8.68;7.88;;;;;;;23.45;52.79;99756.06;5051306;28;20316;-80
2022/08/15 00:05:01;;;;;;;8.90;8.10;;;;;;;23.37;52.99;99757.06;5046047;28;20212;-80
2022/08/15 00:07:28;;;;;;;8.77;7.97;;;;;;;23.31;53.22;99751.56;5045435;28;20263;-80
2022/08/15 00:09:54;;;;;;;9.20;8.38;;;;;;;23.23;53.30;99749.88;5049351;28;20216;-80
2022/08/15 00:12:22;;;;;;;9.52;8.73;;;;;;;23.16;53.39;99749.84;5048347;28;20587;-80
2022/08/15 00:14:49;;;;;;;9.48;8.68;;;;;;;23.07;54.04;99750.22;5046599;28;20552;-80
2022/08/15 00:17:16;;;;;;;9.38;8.57;;;;;;;22.98;54.12;99751.38;5036432;28;20207;-80
2022/08/15 00:19:44;;;;;;;9.77;8.93;;;;;;;22.90;54.46;99748.84;5050477;28;20216;-80
2022/08/15 00:22:17;;;;;;;8.63;7.88;;;;;;;22.83;54.58;99744.19;5045392;28;20227;-80
2022/08/15 00:24:45;;;;;;;9.50;8.60;;;;;;;22.79;54.81;99756.47;5049226;28;20205;-80
2022/08/15 00:27:12;;;;;;;8.93;8.23;;;;;;;22.77;54.97;99752.28;5046303;28;20774;-80
2022/08/15 00:29:39;;;;;;;9.02;8.32;;;;;;;22.75;55.14;99751.63;5051133;28;20193;-80
2022/08/15 00:32:08;;;;;;;10.00;9.00;;;;;;;22.73;55.39;99749.13;5048386;28;20757;-80
2022/08/15 00:34:34;;;;;;;8.68;7.97;;;;;;;22.72;55.36;99750.16;5054684;28;20208;-80
2022/08/15 00:37:05;;;;;;;9.65;8.85;;;;;;;22.71;55.60;99744.91;5050542;28;20583;-80
2022/08/15 00:39:33;;;;;;;9.43;8.52;;;;;;;22.69;55.88;99747.81;5048480;28;20624;-80
2022/08/15 00:42:02;;;;;;;9.75;8.98;;;;;;;22.66;55.95;99745.50;5045077;28;20201;-80
2022/08/15 00:44:33;;;;;;;9.57;8.68;;;;;;;22.66;56.04;99736.50;5039715;28;20569;-80
2022/08/15 00:47:03;;;;;;;10.15;9.35;;;;;;;22.63;56.14;99743.16;5049236;28;20572;-80
2022/08/15 00:49:32;;;;;;;9.00;8.13;;;;;;;22.56;56.14;99736.88;5040768;28;20201;-80
2022/08/15 00:52:02;;;;;;;9.25;8.45;;;;;;;22.45;56.32;99731.97;5042676;28;20572;-80
2022/08/15 00:54:39;;;;;;;9.88;8.98;;;;;;;22.36;56.39;99739.41;5050773;28;20670;-80
2022/08/15 00:57:09;;;;;;;9.70;8.88;;;;;;;22.23;56.47;99738.44;5049965;28;20217;-80
2022/08/15 00:59:40;;;;;;;9.95;9.05;;;;;;;22.08;56.61;99736.63;5048120;28;20209;-80
2022/08/15 01:02:10;;;;;;;9.75;8.95;;;;;;;21.99;57.23;99742.34;5043731;28;20240;-80
2022/08/15 01:04:38;;;;;;;9.75;8.90;;;;;;;21.92;57.52;99728.72;5044954;28;20224;-80
2022/08/15 01:07:05;;;;;;;13.32;9.98;;;;;;;21.90;57.93;99736.19;5044645;28;20595;-80
2022/08/15 01:09:35;;;;;;;8.85;8.15;;;;;;;21.89;58.19;99729.09;5041823;28;20205;-80
2022/08/15 01:12:06;;;;;;;9.63;8.73;;;;;;;21.89;58.29;99723.66;5050794;28;20254;-80
2022/08/15 01:14:33;;;;;;;10.63;9.43;;;;;;;21.91;58.42;99724.31;5044364;28;20812;-80
2022/08/15 01:17:00;;;;;;;9.88;9.18;;;;;;;21.93;58.51;99724.13;5037846;28;20714;-80
2022/08/15 01:19:30;;;;;;;9.13;8.43;;;;;;;21.92;58.38;99723.28;5037534;28;20201;-80
2022/08/15 01:22:27;;;;;;;10.18;9.27;;;;;;;21.88;58.39;99715.72;5040893;28;20256;-80
2022/08/15 01:24:59;;;;;;;9.80;8.90;;;;;;;21.85;58.43;99714.28;5043324;28;20259;-80
2022/08/15 01:27:33;;;;;;;10.40;9.50;;;;;;;21.84;58.62;99709.88;5045736;28;20198;-80
2022/08/15 01:30:00;;;;;;;11.00;10.00;;;;;;;21.81;58.68;99718.38;5043526;28;20207;-80
2022/08/15 01:32:27;;;;;;;10.35;9.35;;;;;;;21.75;58.58;99711.00;5044906;28;20717;-80
2022/08/15 01:34:53;;;;;;;10.27;9.27;;;;;;;21.69;58.94;99711.78;5045540;28;20208;-80
2022/08/15 01:37:22;;;;;;;9.52;8.73;;;;;;;21.66;59.28;99701.34;5042786;28;20220;-80
2022/08/15 01:39:53;;;;;;;9.82;9.02;;;;;;;21.66;59.42;99701.34;5048035;28;20291;-80
2022/08/15 01:42:28;;;;;;;9.80;9.00;;;;;;;21.66;59.50;99696.75;5041759;28;20232;-80
2022/08/15 01:44:59;;;;;;;9.33;8.53;;;;;;;21.67;59.32;99705.72;5042670;28;20302;-80
2022/08/15 01:47:32;;;;;;;9.70;8.80;;;;;;;21.67;59.51;99700.31;5036493;28;20678;-80
2022/08/15 01:50:09;;;;;;;10.10;9.13;;;;;;;21.68;59.65;99704.66;5045512;28;20207;-80
2022/08/15 01:52:40;;;;;;;9.75;8.93;;;;;;;21.65;59.66;99697.78;5049575;28;20228;-80
2022/08/15 01:55:08;;;;;;;9.63;8.82;;;;;;;21.61;59.88;99707.31;5051313;28;20651;-80
2022/08/15 01:57:35;;;;;;;10.45;8.85;;;;;;;21.57;60.14;99700.59;5037877;28;20293;-80
2022/08/15 02:00:06;;;;;;;9.23;8.52;;;;;;;21.55;60.08;99696.41;5045760;28;20577;-80
2022/08/15 02:02:32;;;;;;;10.17;9.07;;;;;;;21.57;60.23;99697.06;5033409;28;20284;-80
2022/08/15 02:04:59;;;;;;;10.02;9.13;;;;;;;21.59;60.31;99703.13;5044884;28;20216;-80
2022/08/15 02:07:28;;;;;;;8.88;8.07;;;;;;;21.59;60.03;99695.84;5053146;28;20314;-80
2022/08/15 02:09:56;;;;;;;8.87;8.17;;;;;;;21.61;60.25;99687.50;5042888;28;20210;-80
2022/08/15 02:12:25;;;;;;;9.85;8.85;;;;;;;21.64;60.48;99687.13;5048462;28;20315;-80
2022/08/15 02:14:54;;;;;;;10.20;9.30;;;;;;;21.63;60.44;99688.16;5049482;28;20215;-80
2022/08/15 02:17:20;;;;;;;9.43;8.53;;;;;;;21.61;60.64;99690.22;5051937;28;20221;-80
2022/08/15 02:19:49;;;;;;;10.50;9.70;;;;;;;21.53;60.74;99696.59;5048376;28;20550;-80
2022/08/15 02:22:17;;;;;;;10.30;9.40;;;;;;;21.46;61.33;99684.84;5043593;28;20217;-80
2022/08/15 02:24:44;;;;;;;10.83;9.90;;;;;;;21.42;61.63;99684.38;5048309;28;20216;-80
2022/08/15 02:27:12;;;;;;;10.70;9.70;;;;;;;21.41;61.66;99692.69;5047624;28;20207;-80
2022/08/15 02:29:39;;;;;;;10.47;9.47;;;;;;;21.40;61.81;99682.91;5050260;28;20232;-80
2022/08/15 02:32:12;;;;;;;10.57;9.50;;;;;;;21.39;61.85;99687.47;5050160;28;20321;-80
2022/08/15 02:34:39;;;;;;;10.37;9.37;;;;;;;21.40;61.74;99675.59;5046375;28;20289;-80
2022/08/15 02:37:06;;;;;;;10.33;9.40;;;;;;;21.40;62.14;99683.72;5046285;28;20226;-80
2022/08/15 02:39:33;;;;;;;10.67;9.77;;;;;;;21.41;61.92;99688.13;5044432;28;20262;-80
2022/08/15 02:41:59;;;;;;;8.65;7.85;;;;;;;21.41;62.16;99685.41;5048477;28;20556;-80
2022/08/15 02:44:27;;;;;;;10.57;9.57;;;;;;;21.40;62.09;99685.59;5042958;28;20213;-80
2022/08/15 02:46:55;;;;;;;11.02;10.13;;;;;;;21.39;62.26;99690.19;5051189;28;20208;-80
2022/08/15 02:49:24;;;;;;;9.90;9.10;;;;;;;21.39;62.27;99682.06;5048721;28;20206;-80
2022/08/15 02:51:52;;;;;;;10.43;9.63;;;;;;;21.39;62.50;99687.47;5051019;28;20204;-80
2022/08/15 02:54:22;;;;;;;10.68;9.70;;;;;;;21.42;62.67;99683.56;5051209;28;20197;-80
2022/08/15 02:56:48;;;;;;;11.80;10.60;;;;;;;21.43;62.66;99679.81;5044353;28;20233;-80
2022/08/15 02:59:15;;;;;;;10.70;9.77;;;;;;;21.44;62.73;99676.91;5051700;28;20205;-80
2022/08/15 03:01:42;;;;;;;11.00;10.15;;;;;;;21.47;62.60;99675.69;5046255;28;20214;-80
2022/08/15 03:04:14;;;;;;;10.43;9.63;;;;;;;21.45;62.71;99670.47;5049345;28;20736;-80
2022/08/15 03:06:43;;;;;;;11.48;10.38;;;;;;;21.44;63.09;99676.91;5038968;28;20252;-80
2022/08/15 03:09:12;;;;;;;10.63;9.63;;;;;;;21.39;63.20;99668.50;5051590;28;20292;-80
2022/08/15 03:11:40;;;;;;;12.30;10.60;;;;;;;21.35;63.52;99672.63;5048861;28;20219;-80
2022/08/15 03:14:08;;;;;;;11.48;10.38;;;;;;;21.30;63.74;99666.13;5046653;28;20239;-80
2022/08/15 03:16:36;;;;;;;11.57;10.57;;;;;;;21.27;63.96;99671.91;5047997;28;20728;-80
2022/08/15 03:19:04;;;;;;;11.00;10.10;;;;;;;21.25;64.17;99665.84;5050980;28;20216;-80
2022/08/15 03:21:31;;;;;;;11.23;9.93;;;;;;;21.22;64.21;99658.94;5046272;28;20201;-80
2022/08/15 03:23:59;;;;;;;12.40;11.30;;;;;;;21.21;64.37;99668.09;5044914;28;20281;-80
2022/08/15 03:26:26;;;;;;;11.63;10.70;;;;;;;21.18;64.78;99652.19;5046895;28;20670;-80
2022/08/15 03:28:53;;;;;;;13.23;12.00;;;;;;;21.17;64.66;99655.06;5060457;28;20253;-80
2022/08/15 03:31:20;;;;;;;11.27;10.38;;;;;;;21.15;64.86;99660.66;5042135;28;20762;-80
2022/08/15 03:33:47;;;;;;;11.97;10.87;;;;;;;21.13;65.13;99654.63;5047784;28;20308;-80
2022/08/15 03:36:15;;;;;;;12.63;11.53;;;;;;;21.11;65.25;99657.53;5048342;28;20241;-80
2022/08/15 03:38:44;;;;;;;11.83;10.93;;;;;;;21.09;65.44;99650.63;5054363;28;20208;-80
2022/08/15 03:41:13;;;;;;;11.80;10.80;;;;;;;21.09;65.39;99645.22;5051845;28;20205;-80
2022/08/15 03:43:42;;;;;;;12.07;10.80;;;;;;;21.09;65.26;99650.63;5058681;28;20227;-80
2022/08/15 03:46:11;;;;;;;11.57;10.60;;;;;;;21.09;65.38;99650.63;5046478;28;20763;-80
2022/08/15 03:48:40;;;;;;;10.47;9.50;;;;;;;21.08;65.40;99649.78;5058083;28;20203;-80
2022/08/15 03:51:08;;;;;;;11.60;10.60;;;;;;;21.08;65.43;99648.94;5049640;28;20793;-80
2022/08/15 03:53:36;;;;;;;11.70;10.70;;;;;;;21.07;65.45;99652.66;5052085;28;20231;-80
2022/08/15 03:56:06;;;;;;;13.20;10.87;;;;;;;21.07;65.42;99653.50;5052903;28;20239;-80
2022/08/15 03:58:34;;;;;;;11.00;10.10;;;;;;;21.05;65.42;99652.84;5049184;28;20257;-80
2022/08/15 04:01:01;;;;;;;11.23;10.23;;;;;;;21.03;65.67;99638.66;5051863;28;20210;-80
2022/08/15 04:03:30;;;;;;;12.70;10.40;;;;;;;21.04;65.54;99648.47;5051304;28;20235;-80
2022/08/15 04:05:59;;;;;;;11.40;10.37;;;;;;;21.02;65.45;99652.38;5051593;28;20217;-80
2022/08/15 04:08:30;;;;;;;11.57;10.23;;;;;;;21.03;65.58;99648.66;5052190;28;20769;-80
2022/08/15 04:10:58;;;;;;;11.60;10.43;;;;;;;21.02;65.52;99644.25;5045462;28;20206;-80
2022/08/15 04:13:25;;;;;;;11.20;10.27;;;;;;;21.03;65.46;99641.38;5054697;28;20229;-80
2022/08/15 04:15:55;;;;;;;12.37;10.63;;;;;;;21.04;65.13;99642.22;5043725;28;20211;-80
2022/08/15 04:18:24;;;;;;;11.50;10.40;;;;;;;21.06;65.27;99645.56;5048560;28;20195;-80
2022/08/15 04:20:51;;;;;;;12.23;11.00;;;;;;;21.05;65.21;99644.75;5050706;28;20607;-80
2022/08/15 04:23:17;;;;;;;12.00;10.80;;;;;;;21.07;65.03;99653.50;5051417;28;20834;-80
2022/08/15 04:25:44;;;;;;;12.33;11.13;;;;;;;21.09;64.91;99645.22;5048954;28;20208;-80
2022/08/15 04:28:14;;;;;;;12.43;11.27;;;;;;;21.11;64.91;99653.97;5056018;28;20289;-80
2022/08/15 04:30:43;;;;;;;12.70;11.53;;;;;;;21.11;64.71;99646.69;5050296;28;20754;-80
2022/08/15 04:33:15;;;;;;;12.00;10.93;;;;;;;21.15;64.91;99644.44;5045746;28;20227;-80
2022/08/15 04:35:44;;;;;;;16.83;12.90;;;;;;;21.18;64.92;99638.63;5048296;28;20291;-80
2022/08/15 04:38:10;;;;;;;12.50;11.33;;;;;;;21.21;65.04;99642.88;5054808;28;20228;-80
2022/08/15 04:40:37;;;;;;;12.60;11.27;;;;;;;21.23;64.73;99643.53;5052430;28;20207;-80
2022/08/15 04:43:05;;;;;;;13.23;11.93;;;;;;;21.24;65.06;99650.63;5051636;28;20247;-80
2022/08/15 04:45:35;;;;;;;12.17;11.17;;;;;;;21.25;65.24;99647.72;5055698;28;20200;-80
2022/08/15 04:48:03;;;;;;;12.87;11.50;;;;;;;21.26;65.55;99644.00;5046695;28;20221;-80
2022/08/15 04:50:31;;;;;;;14.60;12.07;;;;;;;21.26;65.77;99646.69;5046580;28;20211;-81
2022/08/15 04:52:59;;;;;;;12.03;10.83;;;;;;;21.26;65.79;99646.69;5045796;28;20238;-80
2022/08/15 04:55:27;;;;;;;12.80;11.47;;;;;;;21.27;65.59;99652.94;5049685;28;20221;-80
2022/08/15 04:57:55;;;;;;;11.87;10.60;;;;;;;21.25;65.76;99642.31;5042845;28;20250;-80
2022/08/15 05:00:25;;;;;;;11.87;10.63;;;;;;;21.27;65.53;99652.94;5042522;28;20215;-80
2022/08/15 05:03:01;;;;;;;11.57;10.53;;;;;;;21.27;65.52;99640.25;5047024;28;20709;-80
2022/08/15 05:05:28;;;;;;;11.53;10.17;;;;;;;21.29;65.68;99646.31;5046776;28;20220;-80
2022/08/15 05:07:56;;;;;;;10.70;9.80;;;;;;;21.29;65.43;99645.47;5041753;28;20206;-80
2022/08/15 05:10:23;;;;;;;10.33;9.43;;;;;;;21.30;65.34;99641.75;5041288;28;20211;-80
2022/08/15 05:12:49;;;;;;;11.13;10.00;;;;;;;21.30;65.42;99645.28;5059919;28;20646;-80
2022/08/15 05:15:18;;;;;;;10.43;9.47;;;;;;;21.32;65.43;99639.66;5048806;28;20589;-80
2022/08/15 05:17:46;;;;;;;12.73;9.97;;;;;;;21.34;65.31;99643.00;5053087;28;20231;-79
2022/08/15 05:20:13;;;;;;;11.83;9.60;;;;;;;21.35;64.97;99645.53;5049118;28;20200;-80
2022/08/15 05:22:52;;;;;;;10.57;9.57;;;;;;;21.36;64.77;99636.38;5047908;28;20219;-80
2022/08/15 05:25:21;;;;;;;11.10;10.00;;;;;;;21.37;64.50;99631.81;5053758;28;20568;-80
2022/08/15 05:27:48;;;;;;;12.37;9.90;;;;;;;21.39;64.53;99624.34;5044306;28;20218;-80
2022/08/15 05:30:15;;;;;;;11.10;10.10;;;;;;;21.41;64.42;99628.53;5048229;28;20208;-80
2022/08/15 05:32:42;;;;;;;11.27;9.60;;;;;;;21.42;64.20;99638.34;5050494;28;20698;-80
2022/08/15 05:35:10;;;;;;;11.40;10.33;;;;;;;21.44;64.32;99627.31;5050472;28;20206;-80
2022/08/15 05:37:37;;;;;;;12.95;10.80;;;;;;;21.46;64.76;99622.53;5046110;28;20219;-80
2022/08/15 05:40:05;;;;;;;11.53;10.43;;;;;;;21.48;65.06;99621.34;5044468;28;20330;-80
2022/08/15 05:42:43;;;;;;;11.93;10.87;;;;;;;21.52;65.30;99620.91;5048025;28;20282;-80
2022/08/15 05:45:18;;;;;;;15.40;10.30;;;;;;;21.53;65.43;99614.47;5050497;28;20202;-80
2022/08/15 05:47:53;;;;;;;11.17;10.07;;;;;;;21.55;65.57;99620.53;5046172;28;20211;-80
2022/08/15 05:50:30;;;;;;;12.77;11.00;;;;;;;21.58;65.98;99620.16;5046413;28;20653;-80
2022/08/15 05:53:08;;;;;;;12.77;10.60;;;;;;;21.60;65.90;99615.38;5049556;28;20572;-80
2022/08/15 05:55:40;;;;;;;12.33;11.00;;;;;;;21.60;66.30;99609.97;5044887;28;20207;-80
2022/08/15 05:58:24;;;;;;;10.83;9.83;;;;;;;21.61;66.35;99612.50;5042102;28;20573;-80
2022/08/15 06:01:01;;;;;;;11.40;10.30;;;;;;;21.62;66.40;99613.31;5048758;28;20209;-80
2022/08/15 06:03:28;;;;;;;11.73;10.63;;;;;;;21.65;66.50;99618.38;5041899;28;20250;-80
2022/08/15 06:05:58;;;;;;;11.87;10.67;;;;;;;21.66;66.64;99614.63;5037904;28;20215;-80
2022/08/15 06:08:28;;;;;;;12.07;11.00;;;;;;;21.69;66.38;99616.94;5048405;28;20746;-80
2022/08/15 06:10:58;;;;;;;11.83;10.67;;;;;;;21.71;66.43;99617.56;5053360;28;20211;-80
2022/08/15 06:13:31;;;;;;;11.47;10.47;;;;;;;21.73;66.13;99619.06;5048748;28;20235;-80
2022/08/15 06:16:02;;;;;;;10.30;9.20;;;;;;;21.75;65.95;99617.00;5044419;28;20210;-80
2022/08/15 06:18:30;;;;;;;11.73;10.33;;;;;;;21.79;65.97;99620.16;5048332;28;20367;-80
2022/08/15 06:21:10;;;;;;;11.60;10.40;;;;;;;21.83;65.97;99624.16;5045183;28;20215;-80
2022/08/15 06:23:49;;;;;;;11.03;9.87;;;;;;;21.87;65.89;99620.00;5043428;28;20226;-80
2022/08/15 06:26:38;;;;;;;13.70;9.88;;;;;;;21.92;65.90;99614.00;5050371;28;20204;-80
2022/08/15 06:29:24;;;;;;;12.18;10.20;;;;;;;21.96;65.67;99618.03;5047800;28;20311;-80
2022/08/15 06:31:57;;;;;;;11.43;10.27;;;;;;;22.01;65.51;99624.56;5057112;28;20665;-80
2022/08/15 06:34:31;;;;;;;14.50;10.57;;;;;;;22.04;65.23;99618.72;5054104;28;20198;-80
2022/08/15 06:37:07;;;;;;;15.38;11.18;;;;;;;22.07;64.93;99623.78;5049423;28;20242;-80
2022/08/15 06:39:41;;;;;;;14.95;11.18;;;;;;;22.10;64.64;99620.69;5054085;28;20364;-80
2022/08/15 06:42:14;;;;;;;16.88;9.82;;;;;;;22.15;64.49;99628.22;5047201;28;20229;-80
2022/08/15 06:44:43;;;;;;;11.93;10.13;;;;;;;22.17;64.34;99627.00;5045930;28;20201;-80
2022/08/15 06:47:10;;;;;;;12.52;9.77;;;;;;;22.22;64.22;99625.53;5051304;28;20205;-80
2022/08/15 06:49:42;;;;;;;18.15;11.07;;;;;;;22.26;64.04;99626.84;5047995;28;20220;-80
2022/08/15 06:52:09;;;;;;;12.80;10.30;;;;;;;22.29;63.49;99629.16;5051679;28;20699;-80
2022/08/15 06:54:36;;;;;;;15.65;10.20;;;;;;;22.32;63.30;99626.06;5052219;28;20216;-80
2022/08/15 06:57:08;;;;;;;16.40;11.05;;;;;;;22.36;63.20;99627.34;5052572;28;20256;-81
2022/08/15 06:59:42;;;;;;;12.18;10.60;;;;;;;22.39;63.32;99635.09;5056709;28;20194;-80
2022/08/15 07:02:20;;;;;;;12.73;9.45;;;;;;;22.44;63.22;99635.31;5058008;28;20244;-80
2022/08/15 07:04:58;;;;;;;11.18;9.43;;;;;;;22.49;62.93;99624.72;5050872;28;20202;-80
2022/08/15 07:07:33;;;;;;;11.00;10.00;;;;;;;22.52;62.89;99627.03;5051152;28;20243;-81
2022/08/15 07:10:06;;;;;;;14.70;10.23;;;;;;;22.58;63.06;99622.66;5054881;28;20215;-80
2022/08/15 07:12:40;;;;;;;10.35;8.90;;;;;;;22.62;62.97;99623.94;5040590;28;20217;-81
2022/08/15 07:15:14;;;;;;;15.38;9.50;;;;;;;22.67;62.83;99616.91;5050513;28;20570;-80
2022/08/15 07:17:48;;;;;;;16.67;11.15;;;;;;;22.72;62.92;99621.72;5046010;28;20209;-81
2022/08/15 07:20:15;;;;;;;14.60;11.40;;;;;;;22.77;62.89;99619.25;5053113;28;20312;-81
2022/08/15 07:22:41;;;;;;;13.65;10.48;;;;;;;22.81;62.98;99615.13;5054663;28;20692;-81
2022/08/15 07:25:11;;;;;;;10.98;9.98;;;;;;;22.85;62.94;99614.53;5066885;28;20211;-80
2022/08/15 07:27:38;;;;;;;11.43;9.95;;;;;;;22.91;62.47;99620.19;5054030;28;20193;-80
2022/08/15 07:30:15;;;;;;;10.70;9.77;;;;;;;22.94;62.25;99617.06;5055501;28;20209;-80
2022/08/15 07:32:51;;;;;;;12.10;9.20;;;;;;;22.97;61.99;99625.63;5048647;28;20639;-80
2022/08/15 07:35:23;;;;;;;11.27;9.30;;;;;;;23.02;62.07;99630.47;5055905;28;20193;-80
2022/08/15 07:37:56;;;;;;;11.68;10.45;;;;;;;23.07;61.74;99626.13;5052999;28;20243;-80
2022/08/15 07:40:29;;;;;;;11.05;9.55;;;;;;;23.13;61.47;99619.00;5039163;28;20278;-80
2022/08/15 07:42:57;;;;;;;11.20;9.75;;;;;;;23.19;61.35;99613.63;5053672;28;20307;-80
2022/08/15 07:45:30;;;;;;;12.90;10.80;;;;;;;23.25;60.92;99611.13;5052989;28;20221;-80
2022/08/15 07:48:02;;;;;;;11.50;10.30;;;;;;;23.30;60.52;99612.19;5058914;28;20847;-80
2022/08/15 07:50:37;;;;;;;11.38;9.93;;;;;;;23.36;60.53;99616.81;5063072;28;20210;-80
2022/08/15 07:53:13;;;;;;;12.07;9.98;;;;;;;23.44;60.62;99608.47;5072098;28;20241;-80
2022/08/15 07:55:40;;;;;;;13.15;10.65;;;;;;;23.51;60.32;99605.75;5044827;28;20376;-80
2022/08/15 07:58:17;;;;;;;11.07;9.82;;;;;;;23.59;60.02;99607.50;5055839;28;20224;-80
2022/08/15 08:00:53;;;;;;;11.55;10.50;;;;;;;23.66;59.81;99609.16;5060032;28;20208;-80
2022/08/15 08:03:25;;;;;;;15.13;10.63;;;;;;;23.74;59.84;99603.53;5047219;28;20229;-80
2022/08/15 08:05:56;;;;;;;13.18;10.23;;;;;;;23.82;59.44;99599.78;5053584;28;20215;-80
2022/08/15 08:08:27;;;;;;;16.05;11.35;;;;;;;23.88;59.33;99597.06;5043819;28;20563;-79
2022/08/15 08:11:01;;;;;;;12.07;10.88;;;;;;;23.96;59.11;99593.31;5052369;28;20202;-80
2022/08/15 08:13:38;;;;;;;11.57;9.88;;;;;;;24.05;59.12;99593.91;5045341;28;20648;-80
2022/08/15 08:16:13;;;;;;;11.48;9.90;;;;;;;24.17;58.39;99603.13;5048959;28;20627;-79
2022/08/15 08:18:51;;;;;;;14.77;10.20;;;;;;;24.29;58.32;99608.81;5056176;28;20217;-80
2022/08/15 08:21:21;;;;;;;16.33;10.20;;;;;;;24.42;58.29;99597.88;5043771;28;20205;-80
2022/08/15 08:23:51;;;;;;;15.90;9.63;;;;;;;24.59;58.20;99601.81;5055664;28;20231;-80
2022/08/15 08:26:30;;;;;;;17.20;9.80;;;;;;;24.80;57.68;99595.28;5049037;28;20317;-81
2022/08/15 08:29:06;;;;;;;14.25;9.10;;;;;;;25.06;56.70;99597.13;5059778;28;20201;-80
2022/08/15 08:31:40;;;;;;;19.02;9.48;;;;;;;25.29;55.72;99591.09;5052155;28;20202;-80
2022/08/15 08:34:17;;;;;;;12.18;9.52;;;;;;;25.48;55.23;99593.72;5045739;28;20500;-80
2022/08/15 08:36:56;;;;;;;9.10;8.20;;;;;;;25.59;54.35;99581.28;5050918;28;20211;-80
2022/08/15 08:39:37;;;;;;;11.25;9.02;;;;;;;25.70;54.33;99586.06;5046016;28;20320;-80
2022/08/15 08:42:16;;;;;;;11.20;8.80;;;;;;;25.81;53.39;99587.22;5056019;28;20196;-80
2022/08/15 08:44:50;;;;;;;10.07;9.15;;;;;;;25.91;53.48;99587.59;5045149;28;20212;-81
2022/08/15 08:47:36;;;;;;;8.80;7.72;;;;;;;26.03;53.20;99590.41;5049958;28;20193;-80
2022/08/15 08:50:18;;;;;;;9.13;8.38;;;;;;;26.15;52.97;99581.31;5051995;28;20210;-80
2022/08/15 08:52:53;;;;;;;9.15;8.35;;;;;;;26.24;52.38;99587.28;5057098;28;20251;-81
2022/08/15 08:55:25;;;;;;;9.63;8.18;;;;;;;26.33;51.99;99576.97;5055798;28;20215;-81
2022/08/15 08:57:54;;;;;;;8.50;7.80;;;;;;;26.41;51.50;99580.22;5055640;28;20296;-80
2022/08/15 09:00:24;;;;;;;8.73;7.93;;;;;;;26.49;51.23;99579.94;5054853;28;20251;-81
2022/08/15 09:02:56;;;;;;;9.38;8.13;;;;;;;26.56;50.97;99575.22;5049363;28;20609;-81
2022/08/15 09:05:33;;;;;;;8.55;7.75;;;;;;;26.66;50.78;99576.63;5045903;28;20205;-81
2022/08/15 09:08:05;;;;;;;9.07;8.20;;;;;;;26.73;50.72;99571.88;5064797;28;20208;-80
2022/08/15 09:10:35;;;;;;;9.48;7.95;;;;;;;26.84;50.09;99582.91;5060215;28;20287;-81
2022/08/15 09:15:51;;;;;;;8.50;7.75;;;;;;;27.12;49.57;99563.22;5048845;28;20236;-81
2022/08/15 09:18:23;;;;;;;9.27;7.85;;;;;;;27.36;49.52;99569.63;5055500;28;20220;-81
2022/08/15 09:20:51;;;;;;;8.15;7.45;;;;;;;27.60;48.96;99568.66;5047998;28;20198;-80
2022/08/15 09:23:17;;;;;;;9.30;7.82;;;;;;;27.82;47.91;99568.94;5059141;28;20312;-80
2022/08/15 09:25:54;;;;;;;8.68;7.72;;;;;;;28.00;47.20;99570.75;5051143;28;20652;-81
2022/08/15 09:28:29;;;;;;;9.48;8.55;;;;;;;28.16;46.97;99575.53;5053610;28;20626;-81
2022/08/15 09:30:59;;;;;;;8.85;8.07;;;;;;;28.32;46.55;99576.75;5045922;28;20201;-80
2022/08/15 09:34:05;;;;;;;8.40;7.70;;;;;;;28.47;45.81;99568.06;5058623;28;20225;-81
2022/08/15 09:36:53;;;;;;;8.93;8.07;;;;;;;28.63;45.86;99559.13;5048925;28;20200;-81
2022/08/15 09:39:37;;;;;;;8.70;7.80;;;;;;;28.76;45.67;99561.59;5045478;28;20209;-81
2022/08/15 09:42:19;;;;;;;8.88;7.60;;;;;;;28.87;45.17;99562.66;5052343;28;20209;-81
2022/08/15 09:45:02;;;;;;;11.07;7.38;;;;;;;28.97;44.62;99562.88;5038947;28;20708;-81
2022/08/15 09:47:46;;;;;;;13.25;7.88;;;;;;;29.08;44.42;99552.94;5045538;28;20652;-81
2022/08/15 09:50:32;;;;;;;9.40;7.13;;;;;;;29.20;44.04;99559.22;5046111;28;20197;-81
2022/08/15 09:53:10;;;;;;;8.60;6.60;;;;;;;29.34;42.96;99560.59;5052732;28;20620;-81
2022/08/15 09:55:44;;;;;;;8.25;7.45;;;;;;;29.46;41.85;99553.16;5042406;28;20206;-81
2022/08/15 09:58:15;;;;;;;9.07;7.20;;;;;;;29.66;41.65;99553.53;5048639;28;20256;-81
2022/08/15 10:00:53;;;;;;;8.00;7.20;;;;;;;29.84;41.54;99549.69;5062223;28;20209;-81
2022/08/15 10:03:23;;;;;;;7.50;6.70;;;;;;;30.01;40.94;99550.56;5047912;28;20702;-81
2022/08/15 10:06:04;;;;;;;6.78;6.05;;;;;;;30.18;39.87;99547.81;5055144;28;20197;-81
2022/08/15 10:09:11;;;;;;;7.03;5.93;;;;;;;30.35;39.02;99548.59;5050579;28;20212;-81
2022/08/15 10:11:57;;;;;;;6.82;6.22;;;;;;;30.53;38.89;99549.41;5057356;28;20197;-81
2022/08/15 10:14:27;;;;;;;7.13;6.53;;;;;;;30.62;38.21;99545.16;5053862;28;20605;-81
2022/08/15 10:17:00;;;;;;;7.93;6.55;;;;;;;30.66;38.27;99546.31;5054657;28;20296;-81
2022/08/15 10:19:37;;;;;;;6.53;5.93;;;;;;;30.71;37.64;99546.38;5049843;28;20209;-81
2022/08/15 10:22:41;;;;;;;7.38;6.47;;;;;;;30.76;37.83;99538.19;5057695;28;20208;-81
2022/08/15 10:25:28;;;;;;;7.57;6.10;;;;;;;30.79;36.99;99542.34;5050437;28;20204;-81
2022/08/15 10:28:01;;;;;;;7.70;7.10;;;;;;;30.78;37.25;99533.28;5051923;28;20232;-81
2022/08/15 10:30:30;;;;;;;7.57;6.97;;;;;;;30.87;37.15;99528.16;5055439;28;20263;-81
2022/08/15 10:32:58;;;;;;;7.82;7.15;;;;;;;31.02;37.14;99537.41;5043726;28;20758;-81
2022/08/15 10:35:30;;;;;;;8.27;7.47;;;;;;;31.20;37.45;99530.75;5056902;28;20212;-81
2022/08/15 10:38:02;;;;;;;7.75;7.03;;;;;;;31.34;37.12;99528.44;5054751;28;20722;-81
2022/08/15 10:40:48;;;;;;;7.75;7.05;;;;;;;31.41;36.62;99518.03;5050582;28;20207;-81
2022/08/15 10:43:59;;;;;;;7.40;6.72;;;;;;;31.48;36.40;99521.44;5055319;28;20228;-81
2022/08/15 10:46:49;;;;;;;8.63;6.95;;;;;;;31.59;36.15;99514.91;4983664;28;20845;-81
2022/08/15 10:49:29;;;;;;;7.38;6.50;;;;;;;31.71;35.67;99518.34;4990999;28;20273;-81
2022/08/15 10:52:33;;;;;;;7.90;7.20;;;;;;;31.82;35.43;99504.66;5043615;28;20235;-81
2022/08/15 10:55:20;;;;;;;7.88;7.20;;;;;;;31.96;35.28;99505.88;5060345;28;20910;-82
2022/08/15 10:57:50;;;;;;;7.13;6.60;;;;;;;32.12;35.39;99510.38;5056020;28;20799;-81
2022/08/15 11:00:33;;;;;;;8.48;7.15;;;;;;;32.17;34.81;99507.66;5047601;28;20218;-81
2022/08/15 11:03:03;;;;;;;8.00;7.30;;;;;;;32.16;34.67;99514.28;5052067;28;20631;-81
2022/08/15 11:05:30;;;;;;;7.40;6.80;;;;;;;32.18;34.40;99514.84;5049781;28;20231;-81
2022/08/15 11:07:57;;;;;;;7.95;7.35;;;;;;;32.27;34.23;99513.25;5055921;28;20205;-81
2022/08/15 11:10:28;;;;;;;7.90;7.10;;;;;;;32.34;34.31;99502.00;5051329;28;20280;-81
2022/08/15 11:13:01;;;;;;;7.53;6.82;;;;;;;32.44;34.16;99511.16;5052456;28;20312;-81
2022/08/15 11:15:32;;;;;;;7.95;6.82;;;;;;;32.53;33.87;99502.38;5046059;28;20221;-81
2022/08/15 11:18:03;;;;;;;7.00;6.47;;;;;;;32.58;33.68;99506.00;5043009;28;20274;-81
2022/08/15 11:20:37;;;;;;;7.80;7.00;;;;;;;32.61;33.39;99502.69;5046112;28;20254;-81
2022/08/15 11:23:04;;;;;;;7.95;7.35;;;;;;;32.60;33.59;99508.50;5047971;28;20307;-81
2022/08/15 11:25:35;;;;;;;9.63;7.57;;;;;;;32.55;33.77;99509.28;5053860;28;20585;-81
2022/08/15 11:28:05;;;;;;;8.48;7.68;;;;;;;32.55;33.83;99508.47;5052735;28;20201;-81
2022/08/15 11:30:35;;;;;;;7.57;6.97;;;;;;;32.54;33.57;99520.59;5053662;28;20202;-81
2022/08/15 11:33:23;;;;;;;7.75;7.15;;;;;;;32.54;34.50;99515.91;5053978;28;20233;-81
2022/08/15 11:36:02;;;;;;;9.13;8.30;;;;;;;32.57;35.49;99522.81;5050502;28;20217;-81
2022/08/15 11:38:30;;;;;;;8.73;7.97;;;;;;;32.56;36.17;99521.16;5051479;28;20210;-82
2022/08/15 11:40:59;;;;;;;10.00;8.18;;;;;;;32.48;36.19;99514.22;5053768;28;20255;-81
2022/08/15 11:43:28;;;;;;;9.65;7.57;;;;;;;32.38;36.01;99515.00;5048173;28;20221;-81
2022/08/15 11:45:57;;;;;;;8.18;7.38;;;;;;;32.28;35.87;99514.94;5049272;28;20846;-81
2022/08/15 11:48:26;;;;;;;7.35;6.68;;;;;;;32.15;35.19;99520.06;5044736;28;20214;-81
2022/08/15 11:50:59;;;;;;;6.93;6.03;;;;;;;31.90;34.06;99516.00;5046553;28;20220;-81